Time;durP1;ratioP1;P1;durP2;ratioP2;P2;SDS_P1;SDS_P2;PMS_P1;PMS_P2;Temp;Humidity;BMP_temperature;BMP_pressure;BME280_temperature;BME280_humidity;BME280_pressure;Samples;Min_cycle;Max_cycle;Signal;HPM_P1;HPM_P2
2022/04/14 00:00:27;;;;;;;50.70;12.02;;;;;;;11.50;59.73;98778.84;4879352;29;20108;-82
2022/04/14 00:02:53;;;;;;;49.63;12.15;;;;;;;11.58;59.74;98792.38;4862817;29;20057;-83
2022/04/14 00:05:20;;;;;;;37.97;11.10;;;;;;;11.56;59.97;98779.13;4862445;29;20045;-83
2022/04/14 00:07:46;;;;;;;46.38;12.05;;;;;;;11.60;59.70;98771.66;4847613;29;20702;-82
2022/04/14 00:10:13;;;;;;;49.83;12.00;;;;;;;11.62;59.64;98775.91;4862262;29;20045;-85
2022/04/14 00:12:40;;;;;;;36.50;11.50;;;;;;;11.59;59.72;98768.16;4862755;29;20049;-85
2022/04/14 00:15:07;;;;;;;45.85;11.43;;;;;;;11.70;59.85;98780.53;4879224;29;20084;-83
2022/04/14 00:17:33;;;;;;;39.20;10.95;;;;;;;11.77;60.01;98781.66;4882883;29;20053;-83
2022/04/14 00:20:06;;;;;;;35.70;10.27;;;;;;;11.82;59.87;98779.38;4883472;29;20055;-84
2022/04/14 00:22:33;;;;;;;38.25;10.57;;;;;;;11.89;59.75;98774.31;4883487;29;20113;-84
2022/04/14 00:24:59;;;;;;;29.67;9.52;;;;;;;11.95;60.06;98779.09;4851874;29;20120;-84
2022/04/14 00:27:25;;;;;;;41.58;10.27;;;;;;;11.90;59.49;98755.44;4836915;29;20053;-86
2022/04/14 00:29:51;;;;;;;49.60;11.18;;;;;;;12.02;59.81;98779.34;4869380;29;20049;-83
2022/04/14 00:32:17;;;;;;;36.15;10.45;;;;;;;12.07;59.67;98787.78;4855132;29;20053;-85
2022/04/14 00:34:43;;;;;;;44.38;11.25;;;;;;;12.10;59.31;98792.88;4873691;29;20131;-82
2022/04/14 00:37:13;;;;;;;55.80;10.75;;;;;;;12.06;59.30;98786.09;4857367;29;20041;-82
2022/04/14 00:39:40;;;;;;;37.45;9.75;;;;;;;12.17;59.67;98798.47;4857383;29;20125;-84
2022/04/14 00:42:10;;;;;;;37.83;9.20;;;;;;;12.18;59.36;98790.28;4867623;29;20160;-85
2022/04/14 00:44:36;;;;;;;27.85;9.73;;;;;;;12.26;59.37;98776.16;4851188;29;20545;-83
2022/04/14 00:47:03;;;;;;;39.05;11.10;;;;;;;12.39;59.31;98784.72;4882931;29;20601;-85
2022/04/14 00:49:29;;;;;;;68.70;12.88;;;;;;;12.37;58.78;98790.25;4866056;29;20045;-85
2022/04/14 00:51:55;;;;;;;50.58;11.63;;;;;;;12.42;58.85;98797.00;4835192;29;20037;-84
2022/04/14 00:54:21;;;;;;;47.03;10.80;;;;;;;12.37;58.57;98792.06;4865593;29;20041;-84
2022/04/14 00:56:47;;;;;;;43.05;10.70;;;;;;;12.33;59.03;98794.19;4865786;29;20049;-84
2022/04/14 00:59:13;;;;;;;43.67;11.45;;;;;;;12.32;59.13;98792.50;4835194;29;20064;-84
2022/04/14 01:01:38;;;;;;;26.90;8.32;;;;;;;12.31;58.86;98801.53;4865894;29;20045;-85
2022/04/14 01:04:04;;;;;;;21.75;8.18;;;;;;;12.34;58.85;98795.88;4865905;29;20044;-83
2022/04/14 01:06:31;;;;;;;29.67;11.85;;;;;;;12.29;58.59;98782.06;4866150;29;20052;-84
2022/04/14 01:11:59;;;;;;;36.95;11.00;;;;;;;12.33;58.60;98798.69;4815622;29;20053;-83
2022/04/14 01:14:34;;;;;;;32.08;8.80;;;;;;;12.27;58.30;98793.94;4857887;29;20497;-84
2022/04/14 01:17:03;;;;;;;62.35;12.88;;;;;;;12.36;58.82;98801.94;4850450;29;20079;-84
2022/04/14 01:19:30;;;;;;;27.00;7.18;;;;;;;12.34;58.95;98795.88;4851182;29;20049;-86
2022/04/14 01:22:15;;;;;;;22.80;8.98;;;;;;;12.42;59.10;98810.41;4852147;29;20049;-85
2022/04/14 01:24:41;;;;;;;33.10;8.77;;;;;;;12.44;59.19;98805.72;4866640;29;20417;-83
2022/04/14 01:27:08;;;;;;;27.58;7.53;;;;;;;12.50;59.29;98811.34;4882857;29;20049;-83
2022/04/14 01:29:34;;;;;;;30.25;7.68;;;;;;;12.52;59.35;98816.53;4866698;29;20119;-83
2022/04/14 01:32:02;;;;;;;28.30;6.13;;;;;;;12.58;59.26;98818.63;4850136;29;20147;-83
2022/04/14 01:34:34;;;;;;;21.40;6.45;;;;;;;12.58;58.83;98792.66;4881641;29;20045;-84
2022/04/14 01:37:01;;;;;;;31.67;5.95;;;;;;;12.87;58.89;98824.69;4849423;29;20041;-83
2022/04/14 01:39:30;;;;;;;36.40;6.10;;;;;;;12.96;58.32;98827.47;4850239;29;20049;-85
2022/04/14 01:41:56;;;;;;;22.52;6.07;;;;;;;13.14;57.91;98831.03;4849947;29;20531;-81
2022/04/14 01:44:22;;;;;;;25.23;7.25;;;;;;;13.31;57.68;98835.59;4864829;29;20045;-82
2022/04/14 01:46:48;;;;;;;33.33;6.97;;;;;;;13.43;57.41;98835.38;4865471;29;20497;-83
2022/04/14 01:49:14;;;;;;;35.83;7.72;;;;;;;13.57;57.11;98834.81;4849491;29;20040;-83
2022/04/14 01:51:40;;;;;;;41.13;7.28;;;;;;;13.66;56.59;98831.22;4864762;29;20052;-83
2022/04/14 01:54:07;;;;;;;47.45;8.52;;;;;;;13.82;56.29;98846.63;4849310;29;20053;-83
2022/04/14 01:56:33;;;;;;;27.70;7.28;;;;;;;13.91;56.23;98848.38;4849916;29;20079;-83
2022/04/14 01:58:59;;;;;;;25.17;6.43;;;;;;;14.04;55.64;98846.13;4865691;29;20052;-85
2022/04/14 02:01:25;;;;;;;30.98;7.32;;;;;;;14.15;55.64;98846.88;4850148;29;20053;-84
2022/04/14 02:03:51;;;;;;;27.33;6.97;;;;;;;14.27;55.21;98848.28;4849826;29;20100;-84
2022/04/14 02:06:17;;;;;;;33.45;6.88;;;;;;;14.42;54.84;98853.94;4865195;29;20049;-83
2022/04/14 02:08:44;;;;;;;36.42;7.13;;;;;;;14.51;54.72;98847.63;4864668;29;20045;-83
2022/04/14 02:11:13;;;;;;;57.20;7.45;;;;;;;14.66;54.67;98854.09;4834005;29;20049;-84
2022/04/14 02:13:39;;;;;;;25.73;6.70;;;;;;;14.76;54.56;98852.13;4864943;29;20064;-87
2022/04/14 02:16:04;;;;;;;34.38;6.88;;;;;;;14.72;53.87;98840.00;4834222;29;20045;-84
2022/04/14 02:18:32;;;;;;;36.95;6.32;;;;;;;14.94;53.49;98865.50;4881066;29;20120;-87
2022/04/14 02:20:58;;;;;;;28.85;6.05;;;;;;;14.97;53.10;98861.59;4849349;29;20461;-82
2022/04/14 02:23:24;;;;;;;42.85;6.22;;;;;;;15.02;53.10;98851.22;4864532;29;20131;-86
2022/04/14 02:25:50;;;;;;;58.15;9.07;;;;;;;15.11;52.66;98849.38;4848993;29;20147;-84
2022/04/14 02:28:16;;;;;;;30.17;7.25;;;;;;;15.19;53.15;98846.72;4880599;29;20088;-83
2022/04/14 02:30:42;;;;;;;22.92;6.82;;;;;;;15.24;52.59;98837.16;4863936;29;20139;-84
2022/04/14 02:33:08;;;;;;;27.17;5.63;;;;;;;15.40;52.39;98848.97;4863839;29;20109;-82
2022/04/14 02:35:34;;;;;;;26.10;5.30;;;;;;;15.46;52.12;98854.53;4880655;29;20136;-82
2022/04/14 02:38:00;;;;;;;41.53;5.28;;;;;;;15.53;51.98;98854.69;4880925;29;20073;-83
2022/04/14 02:40:26;;;;;;;42.35;7.40;;;;;;;15.62;51.69;98872.56;4863462;29;20072;-84
2022/04/14 02:42:54;;;;;;;53.65;8.32;;;;;;;15.72;51.58;98875.97;4864507;29;20053;-83
2022/04/14 02:45:24;;;;;;;44.65;6.68;;;;;;;15.75;51.11;98875.63;4881007;29;20044;-85
2022/04/14 02:47:51;;;;;;;37.15;5.40;;;;;;;15.85;51.07;98882.72;4848390;29;20409;-85
2022/04/14 02:50:20;;;;;;;34.42;6.28;;;;;;;15.93;50.70;98882.72;4859007;29;20190;-84
2022/04/14 02:52:47;;;;;;;53.90;6.90;;;;;;;15.93;50.74;98871.94;4857403;29;20178;-85
2022/04/14 02:55:13;;;;;;;33.28;5.70;;;;;;;16.04;50.22;98882.38;4869830;29;20045;-86
2022/04/14 02:57:39;;;;;;;47.72;6.05;;;;;;;16.10;49.81;98878.16;4838298;29;20398;-85
2022/04/14 03:00:09;;;;;;;56.63;7.05;;;;;;;16.09;50.03;98876.47;4854594;29;20112;-83
2022/04/14 03:02:39;;;;;;;58.90;6.40;;;;;;;16.20;50.26;98878.84;4853175;29;20037;-85
2022/04/14 03:05:05;;;;;;;49.63;6.00;;;;;;;16.30;49.77;98881.38;4852588;29;20041;-83
2022/04/14 03:07:32;;;;;;;38.85;5.35;;;;;;;16.18;49.71;98892.50;4837588;29;20123;-87
2022/04/14 03:09:58;;;;;;;30.50;5.30;;;;;;;16.02;49.80;98887.09;4838318;29;20093;-85
2022/04/14 03:12:24;;;;;;;47.45;5.90;;;;;;;16.10;49.61;98892.50;4869767;29;20101;-83
2022/04/14 03:14:50;;;;;;;39.88;5.47;;;;;;;16.13;49.59;98888.59;4811208;29;20449;-85
2022/04/14 03:17:17;;;;;;;35.58;5.15;;;;;;;16.15;49.39;98889.28;4853338;29;20096;-84
2022/04/14 03:19:42;;;;;;;33.58;4.72;;;;;;;16.16;49.88;98894.50;4865550;29;20049;-86
2022/04/14 03:22:08;;;;;;;54.63;5.20;;;;;;;16.36;49.38;98904.94;4850121;29;20564;-87
2022/04/14 03:24:35;;;;;;;53.63;6.53;;;;;;;16.50;49.27;98896.16;4838349;29;20196;-85
2022/04/14 03:27:01;;;;;;;50.50;6.47;;;;;;;16.62;48.77;98899.31;4838601;29;20506;-82
2022/04/14 03:29:32;;;;;;;41.97;5.78;;;;;;;16.60;48.72;98915.69;4853107;29;20049;-84
2022/04/14 03:31:59;;;;;;;44.60;5.53;;;;;;;16.64;49.15;98919.75;4854097;29;20096;-85
2022/04/14 03:34:25;;;;;;;51.13;6.13;;;;;;;16.80;48.76;98928.84;4870986;29;20079;-85
2022/04/14 03:36:51;;;;;;;41.90;6.20;;;;;;;16.96;48.40;98918.84;4849469;29;20081;-85
2022/04/14 03:39:17;;;;;;;57.33;5.30;;;;;;;17.08;48.16;98916.63;4869557;29;20053;-85
2022/04/14 03:41:43;;;;;;;30.17;5.60;;;;;;;17.16;48.10;98910.34;4842386;29;20105;-84
2022/04/14 03:44:09;;;;;;;54.90;6.30;;;;;;;17.30;47.72;98906.03;4845211;29;20060;-87
2022/04/14 03:46:35;;;;;;;150.82;9.43;;;;;;;17.45;47.95;98913.25;4846178;29;20041;-86
2022/04/14 03:49:01;;;;;;;46.90;6.07;;;;;;;17.50;47.66;98903.75;4834967;29;20121;-84
2022/04/14 03:51:27;;;;;;;70.75;7.88;;;;;;;17.56;47.45;98914.66;4858406;29;20038;-93
2022/04/14 03:53:53;;;;;;;54.83;6.60;;;;;;;17.67;47.60;98906.16;4868045;29;20033;-92
2022/04/14 03:56:19;;;;;;;61.30;5.88;;;;;;;17.75;47.81;98918.81;4863589;29;20053;-86
2022/04/14 03:58:44;;;;;;;78.18;8.30;;;;;;;17.76;47.47;98903.47;4844314;29;20046;-89
2022/04/14 04:01:10;;;;;;;39.80;5.75;;;;;;;17.95;47.69;98903.81;4851541;29;20053;-91
2022/04/14 04:03:37;;;;;;;43.92;6.18;;;;;;;18.12;47.46;98904.50;4850138;29;20052;-86
2022/04/14 04:06:03;;;;;;;46.53;5.82;;;;;;;18.35;47.26;98898.22;4850062;29;20144;-90
2022/04/14 04:08:29;;;;;;;40.75;4.95;;;;;;;18.48;46.70;98897.63;4853712;29;20057;-94
2022/04/14 04:10:55;;;;;;;38.42;5.90;;;;;;;18.53;46.71;98896.03;4835566;29;20045;-83
2022/04/14 04:13:21;;;;;;;35.75;5.40;;;;;;;18.66;46.89;98889.97;4845231;29;20052;-83
2022/04/14 04:15:47;;;;;;;42.72;5.07;;;;;;;18.91;46.62;98898.69;4828623;29;20065;-80
2022/04/14 04:18:13;;;;;;;36.10;4.68;;;;;;;19.12;46.60;98885.22;4860586;29;20046;-82
2022/04/14 04:20:41;;;;;;;58.77;5.90;;;;;;;19.42;46.65;98885.19;4843928;29;20118;-80
2022/04/14 04:23:07;;;;;;;84.95;7.07;;;;;;;19.52;44.77;98887.56;4847061;29;20050;-89
2022/04/14 04:25:33;;;;;;;43.25;5.03;;;;;;;19.64;44.62;98899.66;4834039;29;20053;-83
2022/04/14 04:27:59;;;;;;;48.72;5.68;;;;;;;19.65;44.66;98891.31;4831532;29;20065;-89
2022/04/14 04:30:25;;;;;;;108.40;9.80;;;;;;;19.76;44.15;98886.41;4846464;29;20438;-87
2022/04/14 04:32:51;;;;;;;66.05;7.07;;;;;;;19.75;44.53;98882.03;4832836;29;20094;-90
2022/04/14 04:35:17;;;;;;;52.83;5.82;;;;;;;19.69;44.41;98885.50;4830951;29;20128;-86
2022/04/14 04:37:43;;;;;;;62.75;5.47;;;;;;;19.72;44.63;98891.38;4829530;29;20058;-86
2022/04/14 04:40:10;;;;;;;51.78;5.18;;;;;;;19.77;44.62;98901.66;4863397;29;20099;-83
2022/04/14 04:42:37;;;;;;;41.78;5.45;;;;;;;19.58;45.36;98893.06;4860474;29;20584;-83
2022/04/14 04:45:03;;;;;;;62.33;5.43;;;;;;;19.64;45.67;98896.94;4844580;29;20081;-79
2022/04/14 04:47:29;;;;;;;27.17;4.18;;;;;;;19.87;47.09;98877.78;4860532;29;20390;-81
2022/04/14 04:49:55;;;;;;;47.40;5.03;;;;;;;20.04;45.53;98884.59;4828695;29;20055;-78
2022/04/14 04:52:21;;;;;;;37.38;4.40;;;;;;;20.28;45.85;98896.09;4843939;29;20053;-81
2022/04/14 04:54:47;;;;;;;60.00;6.57;;;;;;;20.52;45.39;98909.25;4844708;29;20057;-81
2022/04/14 04:57:13;;;;;;;69.15;6.90;;;;;;;20.66;44.26;98914.78;4830112;29;20049;-87
2022/04/14 04:59:39;;;;;;;40.15;4.40;;;;;;;20.67;44.48;98916.47;4843060;29;20105;-78
2022/04/14 05:02:05;;;;;;;47.38;5.20;;;;;;;20.72;44.96;98919.41;4845485;29;20049;-86
2022/04/14 05:04:31;;;;;;;34.92;5.30;;;;;;;20.64;44.27;98909.53;4831515;29;20052;-79
2022/04/14 05:06:57;;;;;;;36.72;5.20;;;;;;;20.65;44.27;98918.53;4847232;29;20045;-83
2022/04/14 05:09:24;;;;;;;39.75;4.90;;;;;;;20.70;43.44;98916.91;4818167;29;20049;-86
2022/04/14 05:11:51;;;;;;;38.72;5.22;;;;;;;20.65;43.32;98923.97;4836133;29;20049;-90
2022/04/14 05:14:17;;;;;;;60.40;6.72;;;;;;;20.66;43.48;98925.66;4849401;29;20076;-88
2022/04/14 05:16:42;;;;;;;67.72;6.68;;;;;;;20.73;43.41;98929.25;4848342;29;20045;-86
2022/04/14 05:19:08;;;;;;;45.88;5.28;;;;;;;20.72;43.86;98930.28;4849498;29;20180;-89
2022/04/14 05:21:34;;;;;;;56.22;6.40;;;;;;;20.94;43.64;98934.59;4863945;29;20472;-88
2022/04/14 05:24:00;;;;;;;55.08;5.25;;;;;;;20.96;42.97;98932.53;4846597;29;20049;-88
2022/04/14 05:26:26;;;;;;;34.50;5.03;;;;;;;20.93;42.87;98932.09;4836843;29;20072;-91
2022/04/14 05:28:52;;;;;;;39.80;4.32;;;;;;;20.98;43.27;98924.19;4878242;29;20502;-93
2022/04/14 05:31:18;;;;;;;34.22;5.15;;;;;;;21.20;42.76;98912.19;4858997;29;20057;-87
2022/04/14 05:33:44;;;;;;;48.30;5.82;;;;;;;21.32;42.63;98910.56;4838386;29;20057;-92
2022/04/14 05:36:10;;;;;;;41.45;5.18;;;;;;;21.28;42.87;98909.28;4865667;29;20050;-85
2022/04/14 05:38:36;;;;;;;40.58;5.88;;;;;;;21.41;42.41;98907.72;4817341;29;20046;-92
2022/04/14 05:41:05;;;;;;;32.83;5.15;;;;;;;21.28;41.96;98913.88;4858667;29;20153;-87
2022/04/14 05:43:31;;;;;;;49.03;5.65;;;;;;;21.33;42.21;98903.31;4846322;29;20050;-90
2022/04/14 05:45:57;;;;;;;38.70;4.72;;;;;;;21.32;42.29;98898.84;4846557;29;20516;-83
2022/04/14 05:48:23;;;;;;;41.20;5.20;;;;;;;21.49;42.86;98897.50;4844929;29;20054;-85
2022/04/14 05:50:50;;;;;;;43.70;5.63;;;;;;;21.59;42.44;98905.28;4847109;29;20048;-84
2022/04/14 05:53:17;;;;;;;42.00;5.43;;;;;;;21.81;42.34;98903.22;4799355;29;20081;-88
2022/04/14 05:55:47;;;;;;;36.83;5.63;;;;;;;21.85;41.73;98896.31;4845714;29;20049;-87
2022/04/14 05:58:13;;;;;;;34.75;4.65;;;;;;;21.83;41.05;98890.25;4852396;29;20070;-89
2022/04/14 06:00:40;;;;;;;47.08;5.28;;;;;;;21.90;40.96;98885.66;4845335;29;20046;-89
2022/04/14 06:03:06;;;;;;;38.97;5.30;;;;;;;21.93;40.99;98879.00;4827671;29;20050;-87
2022/04/14 06:05:33;;;;;;;39.80;4.93;;;;;;;21.96;40.62;98870.38;4845573;29;20108;-89
2022/04/14 06:07:59;;;;;;;51.33;5.57;;;;;;;22.08;40.49;98871.47;4833262;29;20140;-88
2022/04/14 06:10:27;;;;;;;41.78;5.00;;;;;;;22.03;40.60;98866.63;4833710;29;20052;-85
2022/04/14 06:12:56;;;;;;;64.15;7.25;;;;;;;22.02;40.60;98878.56;4864789;29;20046;-88
2022/04/14 06:15:23;;;;;;;62.85;6.47;;;;;;;21.92;40.71;98874.56;4835852;29;20057;-87
2022/04/14 06:17:49;;;;;;;53.30;5.75;;;;;;;21.79;41.02;98867.25;4848290;29;20052;-88
2022/04/14 06:20:16;;;;;;;34.25;5.22;;;;;;;21.47;41.42;98864.22;4851214;29;20049;-86
2022/04/14 06:22:46;;;;;;;41.53;5.85;;;;;;;21.42;42.08;98861.28;4851128;29;20050;-82
2022/04/14 06:25:13;;;;;;;40.72;5.03;;;;;;;21.50;42.07;98854.81;4862935;29;20049;-86
2022/04/14 06:27:43;;;;;;;37.30;5.65;;;;;;;21.55;41.89;98866.78;4830758;29;20552;-89
2022/04/14 06:30:10;;;;;;;60.42;5.85;;;;;;;21.53;41.71;98848.97;4845673;29;20528;-87
2022/04/14 06:32:37;;;;;;;47.85;4.70;;;;;;;21.58;41.79;98852.75;4831242;29;20529;-85
2022/04/14 06:35:07;;;;;;;36.88;4.72;;;;;;;21.36;41.96;98855.81;4845734;29;20054;-85
2022/04/14 06:37:36;;;;;;;34.40;4.78;;;;;;;21.23;42.09;98846.53;4837610;29;20102;-86
2022/04/14 06:40:03;;;;;;;26.98;4.50;;;;;;;21.16;42.48;98836.69;4828715;29;20502;-85
2022/04/14 06:42:32;;;;;;;;;;;;;;;20.83;42.84;98837.38;4830038;29;20506;-86
2022/04/14 06:44:59;;;;;;;51.72;5.32;;;;;;;20.72;43.33;98827.06;4829718;29;20295;-87
2022/04/14 06:47:28;;;;;;;38.85;5.13;;;;;;;20.77;43.28;98838.19;4831414;29;20054;-88
2022/04/14 06:49:55;;;;;;;42.80;4.78;;;;;;;20.86;43.13;98832.38;4852705;29;20569;-83
2022/04/14 06:52:22;;;;;;;53.53;6.60;;;;;;;20.64;43.62;98824.53;4865878;29;20048;-84
2022/04/14 06:54:48;;;;;;;41.58;4.65;;;;;;;20.45;43.90;98832.31;4841899;29;20054;-82
2022/04/14 06:57:14;;;;;;;26.02;4.25;;;;;;;20.52;43.82;98822.38;4867609;29;20042;-85
2022/04/14 06:59:40;;;;;;;35.50;4.93;;;;;;;20.65;43.58;98810.75;4838742;29;20041;-84
2022/04/14 07:02:07;;;;;;;43.22;6.15;;;;;;;20.61;43.90;98795.88;4862299;29;20061;-89
2022/04/14 07:04:33;;;;;;;47.97;6.00;;;;;;;20.64;43.81;98809.06;4848192;29;20060;-84
2022/04/14 07:06:59;;;;;;;32.30;5.00;;;;;;;20.77;44.30;98840.91;4837537;29;20155;-85
2022/04/14 07:09:26;;;;;;;45.20;5.20;;;;;;;20.87;43.70;98830.50;4872089;29;20032;-89
2022/04/14 07:11:53;;;;;;;42.53;5.45;;;;;;;20.89;43.53;98836.56;4884165;29;20109;-89
2022/04/14 07:14:19;;;;;;;38.53;5.65;;;;;;;20.92;43.28;98860.63;4879778;29;20085;-86
2022/04/14 07:16:45;;;;;;;35.60;4.20;;;;;;;21.22;43.67;98858.47;4851359;29;20041;-86
2022/04/14 07:19:11;;;;;;;35.42;4.93;;;;;;;21.63;43.20;98848.59;4841136;29;20511;-89
2022/04/14 07:21:37;;;;;;;71.57;6.07;;;;;;;21.66;42.06;98823.69;4864169;29;20041;-84
2022/04/14 07:24:03;;;;;;;44.60;7.07;;;;;;;21.36;42.41;98807.72;4827833;29;20041;-85
2022/04/14 07:26:29;;;;;;;42.28;5.50;;;;;;;21.10;42.79;98801.16;4842649;29;20117;-84
2022/04/14 07:28:55;;;;;;;68.47;5.75;;;;;;;20.87;43.46;98792.47;4841705;29;20045;-89
2022/04/14 07:31:21;;;;;;;43.83;6.00;;;;;;;20.97;43.60;98806.50;4830209;29;20501;-85
2022/04/14 07:33:47;;;;;;;54.85;6.35;;;;;;;20.98;44.21;98783.72;4814660;29;20132;-87
2022/04/14 07:36:18;;;;;;;38.80;4.93;;;;;;;21.11;43.73;98821.00;4815808;29;20084;-82
2022/04/14 07:38:44;;;;;;;48.90;6.45;;;;;;;21.34;43.63;98821.53;4818432;29;20120;-91
2022/04/14 07:41:11;;;;;;;40.90;4.68;;;;;;;21.23;43.05;98816.66;4862725;29;20462;-84
2022/04/14 07:43:37;;;;;;;25.35;4.57;;;;;;;21.15;43.61;98805.13;4848972;29;20272;-86
2022/04/14 07:46:03;;;;;;;20.45;3.90;;;;;;;21.30;44.01;98792.22;4817670;29;20083;-89
2022/04/14 07:48:30;;;;;;;24.48;4.78;;;;;;;21.52;43.31;98810.06;4847892;29;20561;-81
2022/04/14 07:50:56;;;;;;;25.73;4.15;;;;;;;21.98;42.53;98813.88;4833486;29;20140;-83
2022/04/14 07:53:21;;;;;;;18.83;3.45;;;;;;;22.03;41.90;98792.31;4862947;29;20045;-90
2022/04/14 07:55:48;;;;;;;21.48;3.90;;;;;;;21.76;42.54;98795.03;4864699;29;20060;-92
2022/04/14 07:58:14;;;;;;;22.70;4.30;;;;;;;22.04;42.33;98800.28;4846753;29;20056;-87
2022/04/14 08:00:40;;;;;;;16.48;4.40;;;;;;;22.19;41.50;98793.78;4815658;29;20042;-84
2022/04/14 08:03:09;;;;;;;18.48;3.47;;;;;;;22.26;41.10;98792.72;4841332;29;20058;-86
2022/04/14 08:05:44;;;;;;;20.67;4.50;;;;;;;22.29;41.18;98800.47;4843156;29;20138;-86
2022/04/14 08:08:16;;;;;;;19.10;3.78;;;;;;;22.47;41.40;98802.56;4841796;29;20054;-85
2022/04/14 08:10:44;;;;;;;13.98;3.72;;;;;;;22.80;40.96;98793.47;4841107;29;20498;-83
2022/04/14 08:13:12;;;;;;;33.13;4.18;;;;;;;23.13;40.64;98790.63;4841280;29;20046;-82
2022/04/14 08:15:39;;;;;;;32.58;3.88;;;;;;;23.21;40.37;98789.53;4843365;29;20061;-87
2022/04/14 08:18:08;;;;;;;20.70;4.07;;;;;;;23.44;38.72;98778.91;4841299;29;20554;-85
2022/04/14 08:20:39;;;;;;;21.42;3.92;;;;;;;23.75;36.39;98769.91;4841946;29;20049;-85
2022/04/14 08:23:06;;;;;;;34.22;2.90;;;;;;;23.96;34.42;98770.59;4826002;29;20077;-84
2022/04/14 08:25:35;;;;;;;22.73;3.53;;;;;;;24.19;33.56;98767.22;4825806;29;20054;-86
2022/04/14 08:28:05;;;;;;;25.58;4.32;;;;;;;24.58;33.64;98770.63;4845253;29;20118;-84
2022/04/14 08:30:32;;;;;;;20.77;3.50;;;;;;;24.86;33.26;98765.47;4816855;29;20054;-84
2022/04/14 08:33:03;;;;;;;19.10;3.78;;;;;;;25.08;33.14;98773.19;4825746;29;20522;-84
2022/04/14 08:35:31;;;;;;;35.67;4.43;;;;;;;25.40;32.12;98771.09;4840879;29;20065;-83
2022/04/14 08:37:57;;;;;;;33.30;6.30;;;;;;;25.54;30.99;98755.28;4843283;29;20053;-83
2022/04/14 08:40:29;;;;;;;23.95;4.07;;;;;;;25.62;30.02;98725.69;4844748;29;20052;-84
2022/04/14 08:43:06;;;;;;;41.53;8.57;;;;;;;25.66;29.78;98758.91;4829807;29;20046;-83
2022/04/14 08:45:37;;;;;;;58.22;16.15;;;;;;;25.99;29.15;98761.16;4846386;29;20539;-83
2022/04/14 08:48:04;;;;;;;102.38;14.40;;;;;;;25.97;28.68;98754.22;4846837;29;20410;-83
2022/04/14 08:50:32;;;;;;;37.95;5.75;;;;;;;25.73;28.55;98759.66;4844469;29;20057;-83
2022/04/14 08:52:58;;;;;;;53.78;7.05;;;;;;;25.63;28.71;98742.97;4830386;29;20090;-83
2022/04/14 08:55:25;;;;;;;78.55;20.50;;;;;;;25.86;27.63;98745.75;4845905;29;20052;-84
2022/04/14 08:57:54;;;;;;;129.85;37.72;;;;;;;26.08;27.19;98736.97;4851156;29;20429;-85
2022/04/14 09:00:20;;;;;;;;;;;;;;;26.28;26.78;98745.66;4844834;29;20053;-84
2022/04/14 09:02:46;;;;;;;110.45;37.45;;;;;;;26.66;26.72;98747.06;4843962;29;20256;-85
2022/04/14 09:05:14;;;;;;;142.60;21.90;;;;;;;26.92;26.43;98747.59;4844118;29;20050;-87
2022/04/14 09:07:41;;;;;;;77.78;12.88;;;;;;;27.14;26.22;98745.88;4828807;29;20085;-84
2022/04/14 09:10:08;;;;;;;62.72;13.90;;;;;;;27.13;25.66;98735.16;4859578;29;20046;-85
2022/04/14 09:12:37;;;;;;;64.68;16.35;;;;;;;27.00;25.67;98733.50;4845238;29;20140;-86
2022/04/14 09:15:05;;;;;;;97.07;20.98;;;;;;;27.03;26.09;98727.53;4843717;29;20086;-85
2022/04/14 09:17:30;;;;;;;57.05;10.20;;;;;;;26.94;26.15;98732.56;4829152;29;20065;-85
2022/04/14 09:19:57;;;;;;;42.78;7.07;;;;;;;27.08;26.25;98728.47;4845775;29;20041;-85
2022/04/14 09:22:23;;;;;;;58.25;6.32;;;;;;;27.42;25.89;98742.31;4846170;29;20114;-87
2022/04/14 09:24:51;;;;;;;37.35;5.00;;;;;;;27.40;25.60;98729.91;4849318;29;20058;-86
2022/04/14 09:27:31;;;;;;;31.02;5.05;;;;;;;27.45;25.59;98741.78;4847623;29;20145;-85
2022/04/14 09:29:59;;;;;;;28.92;5.07;;;;;;;27.14;26.11;98736.81;4860067;29;20057;-84
2022/04/14 09:32:42;;;;;;;29.25;4.05;;;;;;;27.10;26.43;98741.94;4844047;29;20077;-85
2022/04/14 09:35:18;;;;;;;42.80;4.47;;;;;;;27.40;26.42;98732.63;4844827;29;20058;-84
2022/04/14 09:37:45;;;;;;;51.65;5.28;;;;;;;27.81;26.29;98743.28;4847095;29;20049;-85
2022/04/14 09:40:12;;;;;;;31.92;4.85;;;;;;;28.06;25.27;98722.81;4831368;29;20046;-83
2022/04/14 09:42:40;;;;;;;32.97;4.22;;;;;;;28.29;25.19;98719.00;4836330;29;20101;-83
2022/04/14 09:45:26;;;;;;;36.92;3.90;;;;;;;28.21;24.51;98709.28;4826715;29;20073;-82
2022/04/14 09:48:06;;;;;;;40.13;4.60;;;;;;;28.06;24.76;98715.38;4840620;29;20537;-84
2022/04/14 09:50:35;;;;;;;40.35;4.60;;;;;;;28.39;24.74;98732.91;4835396;29;20050;-83
2022/04/14 09:53:07;;;;;;;37.33;3.65;;;;;;;28.50;24.48;98728.41;4833063;29;20056;-84
2022/04/14 09:55:35;;;;;;;30.45;4.47;;;;;;;28.46;24.72;98730.81;4814339;29;20057;-84
2022/04/14 09:58:13;;;;;;;22.85;3.80;;;;;;;28.82;24.43;98719.47;4845186;29;20053;-83
2022/04/14 10:00:46;;;;;;;26.98;3.88;;;;;;;29.23;23.37;98715.28;4844345;29;20218;-82
2022/04/14 10:03:19;;;;;;;40.13;4.38;;;;;;;29.23;23.74;98705.09;4831215;29;20533;-85
2022/04/14 10:05:51;;;;;;;31.55;3.97;;;;;;;28.73;24.33;98710.81;4823433;29;20409;-85
2022/04/14 10:08:18;;;;;;;27.20;4.05;;;;;;;28.82;24.21;98712.03;4862686;29;20144;-85
2022/04/14 10:10:45;;;;;;;39.75;5.20;;;;;;;28.85;23.96;98718.94;4862455;29;20109;-85
2022/04/14 10:13:14;;;;;;;40.17;3.80;;;;;;;28.57;23.12;98712.53;4846157;29;20219;-86
2022/04/14 10:15:42;;;;;;;82.93;5.90;;;;;;;28.08;23.15;98688.47;4830354;29;20079;-84
2022/04/14 10:18:10;;;;;;;56.45;5.10;;;;;;;27.75;23.87;98704.97;4830454;29;20049;-82
2022/04/14 10:20:38;;;;;;;29.08;3.20;;;;;;;27.80;23.56;98708.66;4862612;29;20056;-84
2022/04/14 10:23:05;;;;;;;48.67;4.78;;;;;;;28.02;23.33;98696.88;4845886;29;20105;-84
2022/04/14 10:25:33;;;;;;;23.90;3.60;;;;;;;28.12;23.41;98707.22;4846369;29;20552;-84
2022/04/14 10:28:00;;;;;;;52.50;5.18;;;;;;;27.89;23.17;98689.00;4845683;29;20068;-85
2022/04/14 10:30:26;;;;;;;51.65;4.10;;;;;;;27.69;23.21;98697.75;4830314;29;20516;-85
2022/04/14 10:32:55;;;;;;;54.25;4.50;;;;;;;27.61;23.32;98682.50;4861955;29;20048;-84
2022/04/14 10:35:23;;;;;;;46.63;3.65;;;;;;;27.52;23.46;98689.47;4843054;29;20053;-84
2022/04/14 10:38:03;;;;;;;20.05;3.47;;;;;;;27.39;23.88;98684.31;4830185;29;20359;-83
2022/04/14 10:40:32;;;;;;;22.92;3.85;;;;;;;27.28;23.81;98686.88;4830766;29;20052;-84
2022/04/14 10:42:58;;;;;;;24.23;3.70;;;;;;;27.08;24.43;98683.72;4845155;29;20045;-84
2022/04/14 10:45:24;;;;;;;37.80;4.43;;;;;;;26.85;24.54;98688.25;4845458;29;20053;-83
2022/04/14 10:47:50;;;;;;;56.88;4.55;;;;;;;26.84;24.62;98685.75;4815067;29;20057;-84
2022/04/14 10:50:30;;;;;;;48.08;4.85;;;;;;;26.61;24.66;98681.16;4830544;29;20083;-85
2022/04/14 10:53:31;;;;;;;46.60;3.70;;;;;;;26.47;24.73;98688.81;4815164;29;20041;-86
2022/04/14 10:55:57;;;;;;;19.15;3.05;;;;;;;26.17;25.20;98699.91;4815127;29;20462;-87
2022/04/14 10:58:26;;;;;;;45.22;4.28;;;;;;;25.83;25.96;98696.13;4845699;29;20144;-86
2022/04/14 11:00:53;;;;;;;32.70;4.00;;;;;;;25.79;26.05;98692.19;4814817;29;20050;-88
2022/04/14 11:03:20;;;;;;;22.98;3.38;;;;;;;25.76;25.88;98709.03;4816038;29;20445;-88
2022/04/14 11:05:48;;;;;;;35.75;3.58;;;;;;;25.72;26.00;98697.72;4847747;29;20049;-91
2022/04/14 11:08:29;;;;;;;71.25;5.22;;;;;;;25.61;26.26;98698.56;4850942;29;20502;-92
2022/04/14 11:11:15;;;;;;;39.00;3.75;;;;;;;25.37;26.75;98711.38;4846305;29;20049;-89
2022/04/14 11:13:51;;;;;;;19.80;2.97;;;;;;;25.24;26.83;98712.41;4872899;29;20049;-85
2022/04/14 11:16:44;;;;;;;22.25;2.63;;;;;;;25.31;26.96;98706.81;4832733;29;20057;-89
2022/04/14 11:19:19;;;;;;;25.65;3.42;;;;;;;25.16;27.23;98721.78;4831281;29;20042;-85
2022/04/14 11:24:44;;;;;;;36.28;4.00;;;;;;;24.85;27.74;98722.78;4831205;29;20069;-85
2022/04/14 11:27:19;;;;;;;22.17;3.17;;;;;;;24.76;27.97;98732.38;4848140;29;20053;-85
2022/04/14 11:29:51;;;;;;;40.95;3.55;;;;;;;24.75;27.92;98743.50;4846957;29;20569;-85
2022/04/14 11:32:40;;;;;;;24.38;3.15;;;;;;;24.73;27.92;98754.69;4815019;29;20136;-87